Time;durP1;ratioP1;P1;durP2;ratioP2;P2;SDS_P1;SDS_P2;PMS_P1;PMS_P2;Temp;Humidity;BMP_temperature;BMP_pressure;BME280_temperature;BME280_humidity;BME280_pressure;Samples;Min_cycle;Max_cycle;Signal;HPM_P1;HPM_P2
2024/01/05 00:01:28;;;;;;;8.87;3.73;;;5.70;21.60;;;;;;5043816;28;20846;-65
2024/01/05 00:03:55;;;;;;;7.87;3.40;;;5.70;21.50;;;;;;5043606;28;20474;-67
2024/01/05 00:06:23;;;;;;;8.60;3.60;;;5.70;21.40;;;;;;5044678;28;20491;-66
2024/01/05 00:08:50;;;;;;;10.13;3.57;;;5.70;21.30;;;;;;5044243;28;20470;-65
2024/01/05 00:11:18;;;;;;;9.13;3.87;;;5.70;21.20;;;;;;5046503;28;20454;-66
2024/01/05 00:13:45;;;;;;;5.10;2.60;;;5.70;21.20;;;;;;5044721;28;21025;-65
2024/01/05 00:16:17;;;;;;;7.23;3.03;;;5.70;21.20;;;;;;5047151;28;20457;-65
2024/01/05 00:18:44;;;;;;;7.43;2.90;;;5.70;20.90;;;;;;5041652;28;20515;-65
2024/01/05 00:21:19;;;;;;;6.57;3.77;;;5.80;20.50;;;;;;5046712;28;20450;-65
2024/01/05 00:23:47;;;;;;;8.10;3.23;;;5.80;20.50;;;;;;5046065;28;20473;-65
2024/01/05 00:26:14;;;;;;;7.10;3.07;;;5.70;20.50;;;;;;5047244;28;20463;-65
2024/01/05 00:28:41;;;;;;;12.33;3.20;;;5.70;20.60;;;;;;5042002;28;20469;-66
2024/01/05 00:31:09;;;;;;;6.23;2.87;;;5.70;20.50;;;;;;5046147;28;20475;-65
2024/01/05 00:33:36;;;;;;;8.50;3.87;;;5.70;20.60;;;;;;5066161;28;20505;-66
2024/01/05 00:36:04;;;;;;;8.97;3.87;;;5.60;20.50;;;;;;5071031;28;20443;-66
2024/01/05 00:38:30;;;;;;;8.47;4.00;;;5.70;20.50;;;;;;5045918;28;20458;-67
2024/01/05 00:40:58;;;;;;;10.80;3.47;;;5.70;20.50;;;;;;5043473;28;20466;-66
2024/01/05 00:43:25;;;;;;;11.40;4.00;;;5.70;20.50;;;;;;5046421;28;20474;-66
2024/01/05 00:45:52;;;;;;;9.53;4.70;;;5.70;20.50;;;;;;5044797;28;20840;-65
2024/01/05 00:48:19;;;;;;;8.03;3.60;;;5.60;20.30;;;;;;5043840;28;20473;-66
2024/01/05 00:50:45;;;;;;;17.57;8.30;;;5.70;20.40;;;;;;5046149;28;20458;-66
2024/01/05 00:53:12;;;;;;;18.20;8.30;;;5.70;20.10;;;;;;5045196;28;20509;-66
2024/01/05 00:55:39;;;;;;;9.47;5.17;;;5.60;20.00;;;;;;5048370;28;20812;-65
2024/01/05 00:58:07;;;;;;;7.10;3.50;;;5.60;20.10;;;;;;5042006;28;20458;-67
2024/01/05 01:00:33;;;;;;;9.47;4.10;;;5.60;20.10;;;;;;5043914;28;20458;-65
2024/01/05 01:03:02;;;;;;;7.67;4.13;;;5.60;20.00;;;;;;5045585;28;20842;-66
2024/01/05 01:05:29;;;;;;;10.67;6.63;;;5.60;20.10;;;;;;5044721;28;20466;-66
2024/01/05 01:07:55;;;;;;;16.17;8.57;;;5.60;20.00;;;;;;5044586;28;20457;-66
2024/01/05 01:10:22;;;;;;;11.47;5.30;;;5.50;20.00;;;;;;5047090;28;20466;-66
2024/01/05 01:12:49;;;;;;;11.10;5.10;;;5.60;19.90;;;;;;5044615;28;20497;-66
2024/01/05 01:15:17;;;;;;;9.90;3.90;;;5.50;19.80;;;;;;5043780;28;20473;-66
2024/01/05 01:17:44;;;;;;;8.77;3.43;;;5.60;19.60;;;;;;5046350;28;20466;-66
2024/01/05 01:20:11;;;;;;;11.57;5.63;;;5.60;19.40;;;;;;5044698;28;20450;-66
2024/01/05 01:22:37;;;;;;;12.67;4.70;;;5.60;19.30;;;;;;5046109;28;20454;-66
2024/01/05 01:25:05;;;;;;;8.00;4.43;;;5.60;19.50;;;;;;5047122;28;20985;-66
2024/01/05 01:27:31;;;;;;;7.40;3.67;;;5.50;19.70;;;;;;5045165;28;20462;-66
2024/01/05 01:29:58;;;;;;;10.37;4.17;;;5.50;19.80;;;;;;5047074;28;20836;-66
2024/01/05 01:32:28;;;;;;;7.50;3.60;;;5.50;19.90;;;;;;5043460;28;20474;-66
2024/01/05 01:34:54;;;;;;;8.80;4.47;;;5.50;20.00;;;;;;5049278;28;20457;-66
2024/01/05 01:37:21;;;;;;;7.37;3.67;;;5.50;20.00;;;;;;5043309;28;20954;-66
2024/01/05 01:39:48;;;;;;;8.17;3.60;;;5.40;19.90;;;;;;5043776;28;20458;-66
2024/01/05 01:42:14;;;;;;;6.60;4.23;;;5.50;19.90;;;;;;5047157;28;20834;-66
2024/01/05 01:44:41;;;;;;;9.90;4.50;;;5.50;19.90;;;;;;5043471;28;20493;-65
2024/01/05 01:47:08;;;;;;;10.97;4.83;;;5.40;19.80;;;;;;5047910;28;20465;-66
2024/01/05 01:49:36;;;;;;;11.37;4.83;;;5.40;19.70;;;;;;5040862;28;20466;-65
2024/01/05 01:52:03;;;;;;;11.60;5.47;;;5.50;19.80;;;;;;5048724;28;20482;-65
2024/01/05 01:54:32;;;;;;;8.90;4.80;;;5.40;19.70;;;;;;5049047;28;20489;-66
2024/01/05 01:56:59;;;;;;;9.33;4.47;;;5.40;19.60;;;;;;5051524;28;20519;-66
2024/01/05 01:59:26;;;;;;;8.17;4.97;;;5.50;19.60;;;;;;5046908;28;20977;-66
2024/01/05 02:01:53;;;;;;;10.57;4.57;;;5.40;19.70;;;;;;5048039;28;20481;-65
2024/01/05 02:04:23;;;;;;;10.57;5.40;;;5.40;19.70;;;;;;5047464;28;20478;-65
2024/01/05 02:06:51;;;;;;;10.00;4.40;;;5.40;19.70;;;;;;5046500;28;20464;-65
2024/01/05 02:09:18;;;;;;;7.30;3.90;;;5.40;19.60;;;;;;5044944;28;20457;-66
2024/01/05 02:11:45;;;;;;;9.10;4.43;;;5.40;19.70;;;;;;5048688;28;20465;-66
2024/01/05 02:14:12;;;;;;;8.23;4.43;;;5.40;19.70;;;;;;5048098;28;20489;-66
2024/01/05 02:16:41;;;;;;;7.60;4.00;;;5.30;19.90;;;;;;5051931;28;20458;-66
2024/01/05 02:19:08;;;;;;;7.77;4.00;;;5.30;19.90;;;;;;5047448;28;20849;-66
2024/01/05 02:21:40;;;;;;;8.60;4.27;;;5.40;19.80;;;;;;5048700;28;20466;-67
2024/01/05 02:24:08;;;;;;;9.60;4.23;;;5.40;19.90;;;;;;5045853;28;20760;-66
2024/01/05 02:26:35;;;;;;;9.90;4.17;;;5.40;19.80;;;;;;5049360;28;20454;-66
2024/01/05 02:29:03;;;;;;;8.23;4.43;;;5.30;19.90;;;;;;5051445;28;20458;-65
2024/01/05 02:31:30;;;;;;;8.80;4.53;;;5.30;20.40;;;;;;5044322;28;20923;-65
2024/01/05 02:33:56;;;;;;;9.40;4.33;;;5.20;19.90;;;;;;5046765;28;20492;-65
2024/01/05 02:36:23;;;;;;;9.10;4.10;;;5.20;20.60;;;;;;5047993;28;20466;-65
2024/01/05 02:38:50;;;;;;;7.90;3.80;;;5.10;20.30;;;;;;5047334;28;20912;-66
2024/01/05 02:41:18;;;;;;;8.90;4.07;;;5.10;20.20;;;;;;5049204;28;20465;-66
2024/01/05 02:43:45;;;;;;;8.80;4.50;;;5.00;20.70;;;;;;5050346;28;20481;-66
2024/01/05 02:46:11;;;;;;;10.17;4.50;;;5.00;21.00;;;;;;5048147;28;20465;-66
2024/01/05 02:48:38;;;;;;;6.87;3.80;;;4.90;21.40;;;;;;5047996;28;20462;-65
2024/01/05 02:51:05;;;;;;;6.97;3.47;;;4.90;21.60;;;;;;5048592;28;20462;-66
2024/01/05 02:53:32;;;;;;;11.13;4.33;;;5.00;21.20;;;;;;5057138;22;21221;-70
2024/01/05 02:55:58;;;;;;;9.53;3.80;;;5.00;21.00;;;;;;5046742;28;20454;-70
2024/01/05 02:58:26;;;;;;;10.63;4.23;;;5.10;20.80;;;;;;5047955;28;20471;-70
2024/01/05 03:00:53;;;;;;;7.43;4.27;;;5.10;20.60;;;;;;5044851;28;20462;-70
2024/01/05 03:03:20;;;;;;;8.20;3.97;;;5.10;20.70;;;;;;5041259;28;20475;-69
2024/01/05 03:05:47;;;;;;;7.80;3.70;;;5.10;20.80;;;;;;5031137;28;20454;-70
2024/01/05 03:08:14;;;;;;;7.83;3.27;;;5.10;20.90;;;;;;5028819;28;20545;-70
2024/01/05 03:10:40;;;;;;;7.50;3.53;;;5.10;20.50;;;;;;5025609;28;20860;-69
2024/01/05 03:13:07;;;;;;;6.77;3.43;;;5.20;20.40;;;;;;5026497;28;20483;-69
2024/01/05 03:15:35;;;;;;;8.27;4.27;;;5.20;20.20;;;;;;5031581;28;20462;-69
2024/01/05 03:18:02;;;;;;;10.47;3.60;;;5.20;20.20;;;;;;5030649;28;20454;-70
2024/01/05 03:20:28;;;;;;;8.60;4.50;;;5.20;20.10;;;;;;5025075;28;20470;-70
2024/01/05 03:22:55;;;;;;;10.47;4.00;;;5.20;20.30;;;;;;5027248;28;21415;-69
2024/01/05 03:25:22;;;;;;;6.87;4.03;;;5.10;20.70;;;;;;5035596;28;20498;-69
2024/01/05 03:27:48;;;;;;;6.60;3.40;;;5.10;20.50;;;;;;5029760;28;20978;-69
2024/01/05 03:30:15;;;;;;;8.73;3.67;;;5.10;20.50;;;;;;5031426;28;20455;-69
2024/01/05 03:32:44;;;;;;;7.03;3.90;;;5.10;20.30;;;;;;5025720;28;20520;-69
2024/01/05 03:35:11;;;;;;;8.10;3.80;;;5.10;20.50;;;;;;5032470;28;20463;-69
2024/01/05 03:37:37;;;;;;;8.53;4.60;;;5.10;20.50;;;;;;5027733;28;20470;-69
2024/01/05 03:40:05;;;;;;;8.53;3.90;;;5.10;20.40;;;;;;5025651;28;20455;-69
2024/01/05 03:42:32;;;;;;;7.20;3.50;;;5.10;20.40;;;;;;5025834;28;20460;-69
2024/01/05 03:44:59;;;;;;;8.17;4.00;;;5.10;20.30;;;;;;5023938;28;20459;-69
2024/01/05 03:47:26;;;;;;;10.13;3.77;;;5.10;20.30;;;;;;5030297;28;20574;-69
2024/01/05 03:49:54;;;;;;;7.20;3.97;;;5.10;20.30;;;;;;5028331;28;20459;-69
2024/01/05 03:52:20;;;;;;;7.10;3.30;;;5.10;20.00;;;;;;5029072;28;20494;-69
2024/01/05 03:54:47;;;;;;;10.50;4.50;;;5.10;20.00;;;;;;5028126;28;20494;-69
2024/01/05 03:57:14;;;;;;;8.83;4.23;;;5.20;20.10;;;;;;5035733;28;20981;-70
2024/01/05 03:59:42;;;;;;;7.90;3.30;;;5.20;20.00;;;;;;5026503;28;20470;-69
2024/01/05 04:02:09;;;;;;;8.00;3.40;;;5.20;20.40;;;;;;5022806;28;20521;-69
2024/01/05 04:04:36;;;;;;;12.60;4.07;;;5.20;19.90;;;;;;5030937;28;20479;-69
2024/01/05 04:07:05;;;;;;;6.00;3.23;;;5.20;19.90;;;;;;5029221;28;20468;-69
2024/01/05 04:09:32;;;;;;;8.40;3.40;;;5.20;20.20;;;;;;5026803;28;21406;-69
2024/01/05 04:11:59;;;;;;;6.23;2.17;;;5.20;20.20;;;;;;5026040;28;20459;-69
2024/01/05 04:14:26;;;;;;;6.53;3.20;;;5.20;20.20;;;;;;5023580;28;20485;-70
2024/01/05 04:16:52;;;;;;;7.17;2.93;;;5.20;20.50;;;;;;5027567;28;20822;-70
2024/01/05 04:19:19;;;;;;;10.50;4.60;;;5.20;20.40;;;;;;5029537;28;20489;-70
2024/01/05 04:21:46;;;;;;;6.30;2.90;;;5.20;20.60;;;;;;5024157;28;20462;-69
2024/01/05 04:24:14;;;;;;;6.00;2.80;;;5.20;21.20;;;;;;5031647;28;20589;-69
2024/01/05 04:26:41;;;;;;;6.27;3.10;;;5.20;20.60;;;;;;5036140;28;20480;-69
2024/01/05 04:29:08;;;;;;;7.77;3.33;;;5.20;20.80;;;;;;5035234;28;20459;-69
2024/01/05 04:31:34;;;;;;;7.50;2.40;;;5.20;20.90;;;;;;5029336;28;20463;-69
2024/01/05 04:34:03;;;;;;;8.60;2.80;;;5.20;20.90;;;;;;5028070;28;20478;-69
2024/01/05 04:36:29;;;;;;;5.70;2.50;;;5.20;20.90;;;;;;5028295;28;20481;-70
2024/01/05 04:38:56;;;;;;;5.00;2.77;;;5.20;20.80;;;;;;5037776;28;20462;-70
2024/01/05 04:41:26;;;;;;;6.40;2.80;;;5.30;20.90;;;;;;5034580;28;20467;-70
2024/01/05 04:43:52;;;;;;;7.60;2.93;;;5.30;20.80;;;;;;5028128;28;20486;-70
2024/01/05 04:46:19;;;;;;;6.30;3.10;;;5.30;20.70;;;;;;5029866;28;20470;-70
2024/01/05 04:48:46;;;;;;;11.00;3.97;;;5.30;20.60;;;;;;5029919;28;20513;-70
2024/01/05 04:51:13;;;;;;;9.97;4.23;;;5.30;20.80;;;;;;5034783;28;20466;-69
2024/01/05 04:53:40;;;;;;;6.40;3.23;;;5.20;20.50;;;;;;5027973;28;20479;-69
2024/01/05 04:56:07;;;;;;;9.30;3.60;;;5.20;20.60;;;;;;5026904;28;20467;-69
2024/01/05 04:58:35;;;;;;;6.70;3.57;;;5.20;20.50;;;;;;5031664;28;20462;-69
2024/01/05 05:01:02;;;;;;;6.47;3.10;;;5.20;20.50;;;;;;5043611;28;20469;-69
2024/01/05 05:03:30;;;;;;;6.27;3.37;;;5.20;20.50;;;;;;5033953;28;20561;-69
2024/01/05 05:05:57;;;;;;;6.30;3.20;;;5.30;20.40;;;;;;5027505;28;20462;-69
2024/01/05 05:08:23;;;;;;;8.63;3.00;;;5.30;20.50;;;;;;5025613;28;20486;-69
2024/01/05 05:10:50;;;;;;;11.00;3.27;;;5.30;20.30;;;;;;5023724;28;20934;-68
2024/01/05 05:13:17;;;;;;;5.87;2.87;;;5.30;20.20;;;;;;5033473;28;20495;-68
2024/01/05 05:15:45;;;;;;;8.43;3.60;;;5.40;20.20;;;;;;5024864;28;20486;-69
2024/01/05 05:18:12;;;;;;;9.63;3.53;;;5.40;20.30;;;;;;5025742;28;20467;-69
2024/01/05 05:20:38;;;;;;;5.93;2.60;;;5.30;20.40;;;;;;5034506;28;20450;-68
2024/01/05 05:23:05;;;;;;;7.60;2.63;;;5.40;20.20;;;;;;5026772;28;20486;-69
2024/01/05 05:25:32;;;;;;;7.50;3.20;;;5.30;20.50;;;;;;5032114;28;20837;-69
2024/01/05 05:27:59;;;;;;;6.67;2.90;;;5.40;20.10;;;;;;5031918;28;20466;-68
2024/01/05 05:30:26;;;;;;;6.30;3.17;;;5.40;20.00;;;;;;5029291;28;20966;-68
2024/01/05 05:32:54;;;;;;;6.27;2.77;;;5.40;20.10;;;;;;5026769;28;20491;-68
2024/01/05 05:35:20;;;;;;;6.00;2.67;;;5.40;20.00;;;;;;5029102;28;20466;-68
2024/01/05 05:37:47;;;;;;;5.50;2.50;;;5.40;19.90;;;;;;5024589;28;20459;-68
2024/01/05 05:40:14;;;;;;;7.73;2.70;;;5.40;19.80;;;;;;5023779;28;20466;-68
2024/01/05 05:42:41;;;;;;;7.57;2.73;;;5.40;19.90;;;;;;5026321;28;20466;-68
2024/01/05 05:45:09;;;;;;;6.80;2.93;;;5.40;19.80;;;;;;5027628;28;20486;-68
2024/01/05 05:47:35;;;;;;;5.80;2.50;;;5.40;19.90;;;;;;5024475;28;20468;-69
2024/01/05 05:50:06;;;;;;;6.23;2.03;;;5.40;20.00;;;;;;5029328;28;20459;-68
2024/01/05 05:52:33;;;;;;;4.77;1.90;;;5.50;19.90;;;;;;5029168;28;20996;-68
2024/01/05 05:54:59;;;;;;;6.03;2.00;;;5.50;19.40;;;;;;5029772;28;20479;-68
2024/01/05 05:57:26;;;;;;;6.73;2.30;;;5.60;19.20;;;;;;5029865;28;20463;-69
2024/01/05 05:59:53;;;;;;;5.33;1.93;;;5.60;19.10;;;;;;5028470;28;20462;-69
2024/01/05 06:02:20;;;;;;;5.27;2.20;;;5.60;19.10;;;;;;5029722;28;20478;-70
2024/01/05 06:04:46;;;;;;;5.23;2.17;;;5.60;19.10;;;;;;5025938;28;20480;-70
2024/01/05 06:07:14;;;;;;;6.07;2.10;;;5.60;19.00;;;;;;5028442;28;20471;-70
2024/01/05 06:09:41;;;;;;;9.63;3.00;;;5.70;19.10;;;;;;5029390;28;20502;-70
2024/01/05 06:12:09;;;;;;;6.33;3.03;;;5.70;19.10;;;;;;5034380;28;20474;-70
2024/01/05 06:14:38;;;;;;;6.90;3.20;;;5.70;19.10;;;;;;5030154;28;20479;-70
2024/01/05 06:17:04;;;;;;;8.03;3.17;;;5.70;19.10;;;;;;5029469;28;20538;-70
2024/01/05 06:19:31;;;;;;;6.43;2.73;;;5.70;19.10;;;;;;5029477;28;20558;-70
2024/01/05 06:21:59;;;;;;;7.97;3.30;;;5.70;19.30;;;;;;5031077;28;20461;-70
2024/01/05 06:24:28;;;;;;;7.40;3.43;;;5.70;19.20;;;;;;5031463;28;20486;-70
2024/01/05 06:26:55;;;;;;;12.90;5.53;;;5.70;19.20;;;;;;5031113;28;20482;-70
2024/01/05 06:29:22;;;;;;;9.70;4.20;;;5.70;19.00;;;;;;5035092;28;20463;-70
2024/01/05 06:31:48;;;;;;;5.70;2.90;;;5.70;18.90;;;;;;5027264;28;20471;-70
2024/01/05 06:34:15;;;;;;;5.30;2.07;;;5.70;18.90;;;;;;5030350;28;20486;-70
2024/01/05 06:36:42;;;;;;;4.73;2.37;;;5.70;18.80;;;;;;5029996;28;20501;-69
2024/01/05 06:39:08;;;;;;;6.10;2.50;;;5.70;18.60;;;;;;5031919;28;20459;-69
2024/01/05 06:41:36;;;;;;;7.00;3.00;;;5.70;18.60;;;;;;5030562;28;20943;-70
2024/01/05 06:44:04;;;;;;;5.90;2.90;;;5.70;18.70;;;;;;5026040;28;20486;-70
2024/01/05 06:46:31;;;;;;;7.47;3.10;;;5.70;18.60;;;;;;5030740;28;20470;-70
2024/01/05 06:48:58;;;;;;;7.27;3.90;;;5.70;18.70;;;;;;5026696;28;20520;-69
2024/01/05 06:51:29;;;;;;;7.73;4.10;;;5.70;18.90;;;;;;5025840;28;20462;-69
2024/01/05 06:53:56;;;;;;;12.13;4.53;;;5.70;18.90;;;;;;5028756;28;20534;-69
2024/01/05 06:56:23;;;;;;;8.33;4.20;;;5.70;18.60;;;;;;5028359;28;20471;-70
2024/01/05 06:58:51;;;;;;;7.87;3.77;;;5.70;18.50;;;;;;5025757;28;20473;-70
2024/01/05 07:01:18;;;;;;;6.07;2.83;;;5.70;18.60;;;;;;5026702;28;20779;-70
2024/01/05 07:03:45;;;;;;;8.00;3.23;;;5.60;18.60;;;;;;5025222;28;21098;-70
2024/01/05 07:06:12;;;;;;;7.20;3.17;;;5.60;18.60;;;;;;5028259;28;20508;-70
2024/01/05 07:08:39;;;;;;;6.93;3.20;;;5.60;18.50;;;;;;5022736;28;20486;-69
2024/01/05 07:11:06;;;;;;;7.40;3.67;;;5.70;18.50;;;;;;5027893;28;20461;-69
2024/01/05 07:13:32;;;;;;;8.13;3.50;;;5.70;18.60;;;;;;5027593;28;21009;-68
2024/01/05 07:16:00;;;;;;;6.33;3.33;;;5.60;18.70;;;;;;5024912;28;20502;-67
2024/01/05 07:18:27;;;;;;;8.90;3.10;;;5.60;18.90;;;;;;5027425;28;20474;-67
2024/01/05 07:20:54;;;;;;;6.33;2.07;;;5.70;19.00;;;;;;5025881;28;20463;-68
2024/01/05 07:23:21;;;;;;;6.87;2.53;;;5.70;18.80;;;;;;5025057;28;20490;-67
2024/01/05 07:25:48;;;;;;;12.33;2.80;;;5.70;18.60;;;;;;5025553;28;20540;-67
2024/01/05 07:28:14;;;;;;;6.20;2.87;;;5.70;18.30;;;;;;5023558;28;20467;-67
2024/01/05 07:30:41;;;;;;;6.10;2.57;;;5.80;18.10;;;;;;5022009;28;20471;-67
2024/01/05 07:33:09;;;;;;;6.97;3.20;;;5.60;18.00;;;;;;5019292;28;21136;-68
2024/01/05 07:35:36;;;;;;;6.80;2.30;;;5.70;18.20;;;;;;5026267;28;21076;-67
2024/01/05 07:38:03;;;;;;;6.20;2.07;;;5.70;18.30;;;;;;5025003;28;20466;-68
2024/01/05 07:40:30;;;;;;;4.20;1.83;;;5.70;18.20;;;;;;5024081;28;20519;-69
2024/01/05 07:42:57;;;;;;;6.10;2.17;;;5.70;18.10;;;;;;5019770;28;20767;-68
2024/01/05 07:45:24;;;;;;;5.40;2.37;;;5.70;18.50;;;;;;5024950;28;20486;-67
2024/01/05 07:47:50;;;;;;;4.87;1.70;;;5.70;18.00;;;;;;5024912;28;20467;-67
2024/01/05 07:50:18;;;;;;;6.53;2.73;;;5.70;18.20;;;;;;5023241;28;20471;-67
2024/01/05 07:52:45;;;;;;;4.80;2.03;;;5.80;18.20;;;;;;5024438;28;20495;-67
2024/01/05 07:55:12;;;;;;;6.00;1.43;;;5.80;18.20;;;;;;5030832;28;20482;-67
2024/01/05 07:57:39;;;;;;;7.03;2.20;;;5.80;18.20;;;;;;5043053;28;20468;-67
2024/01/05 08:00:08;;;;;;;4.40;2.10;;;5.80;18.20;;;;;;5035524;28;20884;-67
2024/01/05 08:02:34;;;;;;;8.90;1.90;;;5.80;18.30;;;;;;5025894;28;20507;-67
2024/01/05 08:05:12;;;;;;;6.53;2.10;;;5.90;18.20;;;;;;5070495;27;20570;-67
2024/01/05 08:07:38;;;;;;;4.60;1.80;;;6.00;18.20;;;;;;5041330;28;20541;-67
2024/01/05 08:10:07;;;;;;;4.40;1.63;;;6.00;18.10;;;;;;5057654;28;20829;-67
2024/01/05 08:12:33;;;;;;;6.63;2.03;;;6.10;17.90;;;;;;5048586;28;20459;-67
2024/01/05 08:15:00;;;;;;;6.10;1.97;;;6.10;17.80;;;;;;5023383;28;20668;-67
2024/01/05 08:17:27;;;;;;;6.13;1.90;;;6.20;17.90;;;;;;5034916;28;20463;-67
2024/01/05 08:19:53;;;;;;;7.53;2.07;;;6.20;17.80;;;;;;5037441;28;20446;-66
2024/01/05 08:22:21;;;;;;;6.53;2.57;;;6.20;17.60;;;;;;5028786;28;20471;-67
2024/01/05 08:24:48;;;;;;;8.13;2.63;;;6.30;17.80;;;;;;5025591;27;20493;-67
2024/01/05 08:27:15;;;;;;;6.30;2.00;;;6.30;17.80;;;;;;5020413;28;20986;-67
2024/01/05 08:29:41;;;;;;;6.57;2.47;;;6.30;17.90;;;;;;5015192;28;20474;-66
2024/01/05 08:32:08;;;;;;;12.30;2.17;;;6.30;17.90;;;;;;5085867;27;20480;-65
2024/01/05 08:34:35;;;;;;;6.93;2.73;;;6.30;17.80;;;;;;5095622;28;20525;-66
2024/01/05 08:37:02;;;;;;;6.00;2.30;;;6.40;17.70;;;;;;5104824;28;20448;-66
2024/01/05 08:39:30;;;;;;;5.30;2.10;;;6.40;17.70;;;;;;5101145;28;21240;-67
2024/01/05 08:41:57;;;;;;;6.30;2.77;;;6.40;17.70;;;;;;5101064;28;20468;-67
2024/01/05 08:44:23;;;;;;;7.53;3.10;;;6.50;17.70;;;;;;5097729;28;21078;-66
2024/01/05 08:46:50;;;;;;;8.50;3.97;;;6.60;17.70;;;;;;5104670;28;20471;-67
2024/01/05 08:49:17;;;;;;;9.03;4.47;;;6.70;17.80;;;;;;5096031;28;20467;-67
2024/01/05 08:51:44;;;;;;;14.93;12.30;;;6.70;17.70;;;;;;5099641;28;20448;-67
2024/01/05 08:54:11;;;;;;;16.73;10.27;;;6.80;17.60;;;;;;5088732;22;20494;-67
2024/01/05 08:56:39;;;;;;;9.63;6.63;;;6.90;17.60;;;;;;5036737;28;20989;-67
2024/01/05 08:59:06;;;;;;;7.87;4.40;;;7.10;17.40;;;;;;5042548;28;20469;-69
2024/01/05 09:01:33;;;;;;;8.60;4.87;;;7.20;17.10;;;;;;5044244;28;20473;-68
2024/01/05 09:04:00;;;;;;;7.97;4.43;;;7.20;17.00;;;;;;5046774;28;20486;-69
2024/01/05 09:06:28;;;;;;;9.80;6.87;;;7.30;16.80;;;;;;5040024;28;20466;-68
2024/01/05 09:08:55;;;;;;;10.70;5.80;;;7.50;16.70;;;;;;5044850;28;20462;-68
2024/01/05 09:11:21;;;;;;;10.33;5.50;;;7.60;16.50;;;;;;5045628;28;20458;-68
2024/01/05 09:13:49;;;;;;;8.47;5.40;;;7.80;16.40;;;;;;5038682;28;20485;-68
2024/01/05 09:16:16;;;;;;;10.23;4.27;;;7.90;16.20;;;;;;5033991;28;20878;-68
2024/01/05 09:18:43;;;;;;;6.97;3.90;;;8.00;16.00;;;;;;5032633;28;20465;-68
2024/01/05 09:21:12;;;;;;;5.57;3.03;;;8.10;15.70;;;;;;5032855;28;20459;-68
2024/01/05 09:23:39;;;;;;;6.67;3.70;;;8.20;15.10;;;;;;5036081;28;20545;-68
2024/01/05 09:26:06;;;;;;;7.17;4.63;;;8.20;14.90;;;;;;5052537;28;20506;-69
2024/01/05 09:28:33;;;;;;;7.13;3.97;;;8.20;14.60;;;;;;5040787;28;20963;-68
2024/01/05 09:31:01;;;;;;;8.13;3.40;;;8.30;14.40;;;;;;5028715;28;20483;-68
2024/01/05 09:33:28;;;;;;;10.43;5.43;;;8.30;14.10;;;;;;5028899;28;20738;-68
2024/01/05 09:35:55;;;;;;;11.03;6.50;;;8.40;13.90;;;;;;5031907;28;20455;-67
2024/01/05 09:38:22;;;;;;;7.20;3.97;;;8.50;13.90;;;;;;5027487;28;20462;-67
2024/01/05 09:40:52;;;;;;;8.40;3.70;;;8.60;13.60;;;;;;5030523;28;20473;-67
2024/01/05 09:43:20;;;;;;;6.63;3.40;;;8.70;13.40;;;;;;5026493;28;20583;-66
2024/01/05 09:45:50;;;;;;;7.13;3.10;;;8.80;13.30;;;;;;5025635;28;20462;-66
2024/01/05 09:48:20;;;;;;;6.40;3.20;;;8.90;13.20;;;;;;5030655;28;20914;-67
2024/01/05 09:50:51;;;;;;;6.63;3.63;;;9.00;12.80;;;;;;5032306;28;20463;-66
2024/01/05 09:53:19;;;;;;;5.70;2.97;;;9.00;12.80;;;;;;5034959;28;20479;-68
2024/01/05 09:55:48;;;;;;;6.00;3.07;;;9.10;12.60;;;;;;5041624;28;20998;-67
2024/01/05 09:58:14;;;;;;;7.60;3.00;;;9.20;12.60;;;;;;5032583;28;20799;-66
2024/01/05 10:00:46;;;;;;;6.17;3.43;;;9.20;12.40;;;;;;5030443;28;20482;-67
2024/01/05 10:03:19;;;;;;;8.40;3.67;;;9.30;12.50;;;;;;5037748;28;20994;-66
2024/01/05 10:05:48;;;;;;;7.80;3.93;;;9.40;12.40;;;;;;5035487;28;20458;-67
2024/01/05 10:08:15;;;;;;;7.90;3.30;;;9.50;12.30;;;;;;5027404;28;20475;-66
2024/01/05 10:10:50;;;;;;;8.90;4.00;;;9.50;11.90;;;;;;5028601;28;20461;-67
2024/01/05 10:13:17;;;;;;;7.30;3.20;;;9.40;11.80;;;;;;5032148;28;20544;-68
2024/01/05 10:15:53;;;;;;;7.00;3.53;;;9.40;11.80;;;;;;5023567;28;20459;-69
2024/01/05 10:18:20;;;;;;;5.80;3.40;;;9.30;12.00;;;;;;5032847;28;20492;-68
2024/01/05 10:20:48;;;;;;;7.60;3.67;;;9.20;11.90;;;;;;5027381;28;20467;-68
2024/01/05 10:23:16;;;;;;;5.97;3.10;;;9.20;11.90;;;;;;5029042;28;20482;-67
2024/01/05 10:25:43;;;;;;;8.50;3.57;;;9.20;12.10;;;;;;5028982;28;20495;-68
2024/01/05 10:28:21;;;;;;;5.80;3.50;;;9.10;12.40;;;;;;5026106;28;20471;-67
2024/01/05 10:30:47;;;;;;;7.90;3.50;;;9.10;12.80;;;;;;5031195;28;20486;-67
2024/01/05 10:33:16;;;;;;;8.17;3.93;;;9.10;12.80;;;;;;5026696;28;20483;-67
2024/01/05 10:35:43;;;;;;;7.33;4.50;;;9.00;12.90;;;;;;5026032;28;20459;-67
2024/01/05 10:38:13;;;;;;;7.30;3.73;;;9.00;13.00;;;;;;5028312;28;20463;-67
2024/01/05 10:40:41;;;;;;;8.27;3.97;;;9.00;13.10;;;;;;5034607;28;20474;-67
2024/01/05 10:43:09;;;;;;;10.30;4.80;;;8.90;13.00;;;;;;5030395;28;20498;-66
2024/01/05 10:45:37;;;;;;;8.90;4.13;;;8.90;13.10;;;;;;5028818;28;20999;-67
2024/01/05 10:48:06;;;;;;;11.60;6.80;;;8.80;13.10;;;;;;5035589;28;20458;-68
2024/01/05 10:50:34;;;;;;;10.70;6.07;;;8.80;13.10;;;;;;5029384;28;20499;-67
2024/01/05 10:53:03;;;;;;;9.10;4.97;;;8.70;13.20;;;;;;5023024;28;20544;-68
2024/01/05 10:55:33;;;;;;;7.77;4.10;;;8.70;13.10;;;;;;5026193;28;21133;-68
2024/01/05 10:58:00;;;;;;;9.77;3.93;;;8.60;13.20;;;;;;5030226;28;20466;-68
2024/01/05 11:00:27;;;;;;;6.10;3.23;;;8.60;13.30;;;;;;5028951;28;20470;-67
2024/01/05 11:03:06;;;;;;;7.27;2.83;;;8.50;13.20;;;;;;5033098;28;20489;-67
2024/01/05 11:05:33;;;;;;;6.37;3.20;;;8.50;13.40;;;;;;5027154;28;20983;-67
2024/01/05 11:08:01;;;;;;;7.73;3.60;;;8.40;13.60;;;;;;5029190;28;20466;-67
2024/01/05 11:10:41;;;;;;;7.07;3.83;;;8.40;13.80;;;;;;5029881;28;20834;-68
2024/01/05 11:13:44;;;;;;;9.23;3.30;;;8.40;13.90;;;;;;5028206;28;20991;-66
2024/01/05 11:16:37;;;;;;;9.13;3.77;;;8.40;14.10;;;;;;5016137;28;20466;-67
2024/01/05 11:19:32;;;;;;;7.27;3.20;;;8.40;14.10;;;;;;5027571;28;20463;-67
2024/01/05 11:22:03;;;;;;;6.03;3.00;;;8.40;14.30;;;;;;5026811;28;20451;-66
2024/01/05 11:24:30;;;;;;;8.17;3.17;;;8.40;14.30;;;;;;5025619;28;20478;-66
2024/01/05 11:26:58;;;;;;;9.93;3.53;;;8.40;14.20;;;;;;5034295;28;20633;-66
2024/01/05 11:29:56;;;;;;;6.80;3.20;;;8.40;14.30;;;;;;5031348;28;20471;-67
2024/01/05 11:32:39;;;;;;;7.60;4.20;;;8.40;14.30;;;;;;4983090;28;20469;-66
2024/01/05 11:35:50;;;;;;;7.43;3.27;;;8.40;14.50;;;;;;5026915;28;20992;-66
2024/01/05 11:38:25;;;;;;;8.10;3.50;;;8.40;14.60;;;;;;5032793;28;20477;-67
2024/01/05 11:40:52;;;;;;;7.10;3.90;;;8.40;14.80;;;;;;5026478;28;20466;-66
2024/01/05 11:43:44;;;;;;;11.07;5.53;;;8.40;15.00;;;;;;5030085;28;21019;-66
2024/01/05 11:46:11;;;;;;;7.27;3.17;;;8.40;15.00;;;;;;5022252;28;20482;-66
2024/01/05 11:48:48;;;;;;;8.90;3.70;;;8.50;14.90;;;;;;5026129;28;20455;-66
2024/01/05 11:51:15;;;;;;;7.27;3.07;;;8.50;15.00;;;;;;5017494;28;20461;-66
2024/01/05 11:53:44;;;;;;;8.13;2.70;;;8.60;14.80;;;;;;5020332;28;20490;-66
2024/01/05 11:56:15;;;;;;;8.70;3.43;;;8.60;14.80;;;;;;5022743;28;20470;-66
2024/01/05 11:58:43;;;;;;;8.07;3.13;;;8.60;14.80;;;;;;5025426;28;20463;-68
2024/01/05 12:01:12;;;;;;;8.33;3.00;;;8.60;14.90;;;;;;5026141;28;20486;-68
2024/01/05 12:03:40;;;;;;;16.43;6.77;;;8.60;15.20;;;;;;5028259;28;20482;-67
2024/01/05 12:06:09;;;;;;;9.60;5.00;;;8.60;14.90;;;;;;5030466;28;20478;-67
2024/01/05 12:08:36;;;;;;;8.70;4.90;;;8.70;14.80;;;;;;5027711;28;20936;-67
2024/01/05 12:11:05;;;;;;;9.53;4.40;;;8.70;14.70;;;;;;5022252;28;20509;-67
2024/01/05 12:13:33;;;;;;;10.17;5.60;;;8.70;14.80;;;;;;5023877;28;20487;-67
2024/01/05 12:16:02;;;;;;;9.40;6.93;;;8.70;14.90;;;;;;5024654;28;20881;-66
2024/01/05 12:18:32;;;;;;;15.20;5.37;;;8.70;15.00;;;;;;5025186;28;20513;-67
2024/01/05 12:21:00;;;;;;;8.70;3.90;;;8.70;15.10;;;;;;5027894;28;21805;-67
2024/01/05 12:23:28;;;;;;;9.03;3.47;;;8.70;15.10;;;;;;5051816;28;20475;-67
2024/01/05 12:25:59;;;;;;;7.53;3.50;;;8.80;15.10;;;;;;5037288;28;20475;-68
2024/01/05 12:28:28;;;;;;;9.13;4.20;;;8.80;15.80;;;;;;5028441;28;20514;-67
2024/01/05 12:30:55;;;;;;;9.43;4.20;;;8.80;15.40;;;;;;5030592;28;20471;-67
2024/01/05 12:33:23;;;;;;;9.37;5.17;;;8.80;15.70;;;;;;5026714;28;20486;-67
2024/01/05 12:35:52;;;;;;;11.10;5.93;;;8.90;15.80;;;;;;5027835;28;20455;-67
2024/01/05 12:38:23;;;;;;;12.70;6.90;;;8.90;15.90;;;;;;5028768;28;20516;-67
2024/01/05 12:40:51;;;;;;;9.63;5.30;;;8.90;16.00;;;;;;5025147;28;20478;-67
2024/01/05 12:43:18;;;;;;;12.97;4.83;;;8.90;16.00;;;;;;5028269;28;20539;-66
2024/01/05 12:45:48;;;;;;;6.97;3.83;;;9.00;16.00;;;;;;5034363;28;20487;-68
2024/01/05 12:48:16;;;;;;;11.50;5.70;;;9.00;16.10;;;;;;5039504;28;20462;-67
2024/01/05 12:50:43;;;;;;;8.70;4.73;;;8.90;16.30;;;;;;5033441;28;20523;-68
2024/01/05 12:53:22;;;;;;;10.20;5.57;;;8.90;16.30;;;;;;5031965;28;20482;-67
2024/01/05 12:55:49;;;;;;;8.40;4.83;;;8.90;16.20;;;;;;5039747;28;20967;-67
2024/01/05 12:58:16;;;;;;;9.67;5.37;;;8.90;16.20;;;;;;5043833;28;20450;-67
2024/01/05 13:00:44;;;;;;;11.43;7.20;;;8.90;16.30;;;;;;5041190;28;20470;-67